Airport View

Enter AWOS ICAO identifier for current METAR.

ex. KFNL

KCCU 250935Z AUTO SCT044 BKN050 OVC090 03/M06 A2996 RMK AO2 PWINO

25 Oct 2020 10:10

Frequency: 118.075

Phone: 970-968-1715

TAF KASE 250538Z 2506/2606 VRB04KT P6SM VCSH SCT080 BKN120 FM251500 16006KT P6SM VCSH SCT030 OVC050 FM251800 31008KT 4SM -SHRASN BR SCT018 OVC025 FM252000 32010G21KT 2SM -SN BR OVC010 FM252300 30007KT 2SM -SN BR SCT012 OVC030